Time;durP1;ratioP1;P1;durP2;ratioP2;P2;SDS_P1;SDS_P2;PMS_P1;PMS_P2;Temp;Humidity;BMP_temperature;BMP_pressure;BME280_temperature;BME280_humidity;BME280_pressure;Samples;Min_cycle;Max_cycle;Signal;HPM_P1;HPM_P2
2022/11/23 00:00:35;;;;;;;4.73;1.80;;;6.40;99.90;;;;;;4994265;28;20209;-81
2022/11/23 00:03:01;;;;;;;5.53;1.60;;;6.40;99.90;;;;;;4993858;28;20178;-81
2022/11/23 00:05:28;;;;;;;3.83;1.70;;;6.40;99.90;;;;;;4994353;28;20565;-81
2022/11/23 00:07:54;;;;;;;4.43;1.87;;;6.40;99.90;;;;;;4995398;28;20214;-81
2022/11/23 00:10:20;;;;;;;3.40;1.80;;;6.30;99.90;;;;;;4993927;28;20178;-81
2022/11/23 00:12:46;;;;;;;3.83;1.70;;;6.30;99.90;;;;;;4995105;28;20237;-81
2022/11/23 00:15:13;;;;;;;3.67;1.70;;;6.30;99.90;;;;;;4995303;28;20228;-81
2022/11/23 00:17:39;;;;;;;2.80;1.63;;;6.30;99.90;;;;;;4993634;28;20200;-81
2022/11/23 00:20:06;;;;;;;3.37;1.57;;;6.30;99.90;;;;;;4993686;28;20180;-81
2022/11/23 00:22:32;;;;;;;4.90;1.60;;;6.30;99.90;;;;;;4993834;28;20232;-81
2022/11/23 00:24:58;;;;;;;7.33;2.00;;;6.40;99.90;;;;;;4993937;28;20189;-81
2022/11/23 00:27:23;;;;;;;4.07;1.50;;;6.40;99.90;;;;;;5044691;23;20227;-79
2022/11/23 00:29:49;;;;;;;5.43;1.70;;;6.40;99.90;;;;;;5034990;28;20245;-79
2022/11/23 00:32:15;;;;;;;4.00;1.80;;;6.40;99.90;;;;;;5035778;28;20639;-79
2022/11/23 00:34:40;;;;;;;9.03;2.20;;;6.40;99.90;;;;;;5035176;28;20167;-79
2022/11/23 00:37:06;;;;;;;4.47;1.43;;;6.40;99.90;;;;;;5035713;28;20203;-79
2022/11/23 00:39:32;;;;;;;4.20;1.53;;;6.40;99.90;;;;;;5036471;28;20760;-79
2022/11/23 00:41:57;;;;;;;6.17;1.50;;;6.40;99.90;;;;;;5035427;28;20217;-80
2022/11/23 00:44:23;;;;;;;4.67;1.80;;;6.40;99.90;;;;;;5035675;28;20204;-79
2022/11/23 00:46:48;;;;;;;6.10;1.77;;;6.50;99.90;;;;;;5034059;28;20209;-79
2022/11/23 00:49:14;;;;;;;7.40;1.80;;;6.50;99.90;;;;;;5034910;28;20229;-80
2022/11/23 00:51:39;;;;;;;6.20;1.90;;;6.40;99.90;;;;;;5034935;28;20541;-80
2022/11/23 00:54:06;;;;;;;2.90;1.73;;;6.40;99.90;;;;;;5034207;28;20206;-79
2022/11/23 00:56:33;;;;;;;4.10;1.73;;;6.40;99.90;;;;;;5035298;28;20176;-79
2022/11/23 00:59:01;;;;;;;3.63;1.57;;;6.50;99.90;;;;;;5034492;28;20183;-79
2022/11/23 01:01:29;;;;;;;4.30;1.70;;;6.40;99.90;;;;;;5034268;28;20185;-79
2022/11/23 01:03:57;;;;;;;5.40;1.80;;;6.40;99.90;;;;;;5034530;28;20181;-80
2022/11/23 01:06:28;;;;;;;5.10;1.57;;;6.30;99.90;;;;;;5035563;28;20180;-79
2022/11/23 01:09:20;;;;;;;5.83;1.73;;;6.30;99.90;;;;;;5035860;28;20210;-80
2022/11/23 01:11:46;;;;;;;4.80;1.50;;;6.30;99.90;;;;;;5034942;28;20181;-81
2022/11/23 01:14:11;;;;;;;3.03;1.40;;;6.30;99.90;;;;;;5035778;28;20607;-79
2022/11/23 01:16:39;;;;;;;3.93;1.40;;;6.30;99.90;;;;;;5034203;28;20189;-79
2022/11/23 01:19:07;;;;;;;6.43;2.00;;;6.30;99.90;;;;;;5034414;28;20196;-79
2022/11/23 01:21:35;;;;;;;1.87;1.40;;;6.30;99.90;;;;;;5034263;28;20185;-80
2022/11/23 01:24:05;;;;;;;4.40;2.30;;;6.30;99.90;;;;;;5035247;28;20184;-80
2022/11/23 01:26:31;;;;;;;4.37;1.50;;;6.30;99.90;;;;;;5034310;28;20173;-79
2022/11/23 01:28:56;;;;;;;4.60;1.43;;;6.30;99.90;;;;;;5033870;28;20218;-79
2022/11/23 01:31:24;;;;;;;4.70;1.60;;;6.30;99.90;;;;;;5035349;28;20177;-80
2022/11/23 01:33:54;;;;;;;3.17;1.37;;;6.30;99.90;;;;;;5035116;28;20175;-79
2022/11/23 01:36:22;;;;;;;5.37;1.63;;;6.30;99.90;;;;;;5033935;28;20175;-80
2022/11/23 01:38:49;;;;;;;6.63;1.60;;;6.30;99.90;;;;;;5034968;28;20253;-79
2022/11/23 01:41:17;;;;;;;5.57;1.60;;;6.20;99.90;;;;;;5035529;28;20222;-79
2022/11/23 01:43:43;;;;;;;3.90;1.50;;;6.20;99.90;;;;;;5034905;28;20178;-79
2022/11/23 01:46:10;;;;;;;3.53;1.50;;;6.20;99.90;;;;;;5035634;28;20181;-79
2022/11/23 01:48:41;;;;;;;3.27;1.67;;;6.20;99.90;;;;;;5033468;28;20286;-79
2022/11/23 01:51:15;;;;;;;3.87;1.60;;;6.10;99.90;;;;;;5035073;28;20180;-79
2022/11/23 01:53:41;;;;;;;6.73;1.53;;;6.10;99.90;;;;;;5033245;28;20266;-79
2022/11/23 01:56:13;;;;;;;4.43;1.50;;;6.10;99.90;;;;;;5033802;28;20545;-80
2022/11/23 01:58:41;;;;;;;3.80;1.40;;;6.10;99.90;;;;;;5034918;28;20241;-79
2022/11/23 02:01:07;;;;;;;3.10;1.33;;;6.00;99.90;;;;;;5034926;28;20549;-80
2022/11/23 02:03:36;;;;;;;4.03;1.63;;;6.00;99.90;;;;;;5034474;28;20648;-80
2022/11/23 02:06:06;;;;;;;4.70;1.60;;;6.00;99.90;;;;;;5033832;28;20178;-79
2022/11/23 02:08:33;;;;;;;4.70;1.70;;;6.00;99.90;;;;;;5033508;28;20277;-79
2022/11/23 02:10:59;;;;;;;4.67;1.77;;;6.00;99.90;;;;;;5035325;28;20185;-79
2022/11/23 02:13:27;;;;;;;4.73;1.53;;;6.00;99.90;;;;;;5033054;28;20183;-79
2022/11/23 02:15:55;;;;;;;3.73;1.50;;;6.00;99.90;;;;;;5035443;28;20175;-79
2022/11/23 02:18:24;;;;;;;7.80;2.37;;;6.00;99.90;;;;;;5033503;28;20253;-79
2022/11/23 02:20:50;;;;;;;5.57;1.70;;;6.10;99.90;;;;;;5034731;28;20185;-79
2022/11/23 02:23:19;;;;;;;5.23;1.50;;;6.10;99.90;;;;;;5034686;28;20180;-79
2022/11/23 02:25:44;;;;;;;5.63;1.73;;;6.10;99.90;;;;;;5033304;28;20671;-79
2022/11/23 02:28:15;;;;;;;5.07;1.67;;;6.10;99.90;;;;;;5033257;28;20245;-80
2022/11/23 02:30:43;;;;;;;3.27;1.70;;;6.10;99.90;;;;;;5033714;28;20181;-79
2022/11/23 02:33:08;;;;;;;4.60;1.47;;;6.20;99.90;;;;;;5033080;28;20189;-79
2022/11/23 02:35:34;;;;;;;5.70;1.73;;;6.20;99.90;;;;;;5033844;28;20177;-80
2022/11/23 02:38:02;;;;;;;5.73;1.70;;;6.20;99.90;;;;;;5035090;28;20224;-79
2022/11/23 02:40:31;;;;;;;4.93;1.53;;;6.20;99.90;;;;;;5033266;28;20191;-81
2022/11/23 02:42:58;;;;;;;4.63;1.43;;;6.20;99.90;;;;;;5034847;28;20192;-79
2022/11/23 02:45:32;;;;;;;3.63;1.70;;;6.20;99.90;;;;;;5035377;28;20247;-79
2022/11/23 02:47:58;;;;;;;6.37;1.80;;;6.20;99.90;;;;;;5034818;28;20604;-79
2022/11/23 02:50:23;;;;;;;4.53;1.70;;;6.20;99.90;;;;;;5035223;28;20649;-79
2022/11/23 02:52:49;;;;;;;4.17;1.50;;;6.20;99.90;;;;;;5034789;28;20176;-79
2022/11/23 02:55:14;;;;;;;3.90;1.80;;;6.20;99.90;;;;;;5036527;28;20177;-80
2022/11/23 02:57:40;;;;;;;2.93;1.40;;;6.20;99.90;;;;;;5037580;28;20208;-79
2022/11/23 03:00:07;;;;;;;5.30;1.40;;;6.20;99.90;;;;;;5038964;28;20649;-80
2022/11/23 03:02:32;;;;;;;2.47;1.40;;;6.20;99.90;;;;;;5038533;28;20207;-80
2022/11/23 03:04:58;;;;;;;2.40;1.40;;;6.20;99.90;;;;;;5037060;28;20186;-78
2022/11/23 03:07:23;;;;;;;3.57;1.77;;;6.20;99.90;;;;;;5038388;28;20220;-81
2022/11/23 03:09:49;;;;;;;6.17;1.73;;;6.10;99.90;;;;;;5038090;28;20174;-79
2022/11/23 03:12:15;;;;;;;4.43;1.60;;;6.20;99.90;;;;;;5037996;28;20180;-78
2022/11/23 03:14:41;;;;;;;3.47;1.50;;;6.20;99.90;;;;;;5037897;28;20550;-79
2022/11/23 03:17:06;;;;;;;4.97;1.60;;;6.20;99.90;;;;;;5037917;28;20670;-79
2022/11/23 03:19:32;;;;;;;5.57;1.73;;;6.20;99.90;;;;;;5037862;28;20265;-79
2022/11/23 03:21:57;;;;;;;6.70;1.90;;;6.20;99.90;;;;;;5037308;28;20180;-79
2022/11/23 03:24:23;;;;;;;3.33;1.33;;;6.20;99.90;;;;;;5036476;28;20169;-79
2022/11/23 03:26:48;;;;;;;4.57;1.77;;;6.20;99.90;;;;;;5037750;28;20176;-79
2022/11/23 03:29:14;;;;;;;4.17;1.70;;;6.20;99.90;;;;;;5037621;28;20179;-81
2022/11/23 03:31:40;;;;;;;4.60;1.70;;;6.20;99.90;;;;;;5036436;28;20176;-79
2022/11/23 03:34:05;;;;;;;4.63;1.60;;;6.20;99.90;;;;;;5036976;28;20244;-79
2022/11/23 03:36:31;;;;;;;6.80;1.90;;;6.20;99.90;;;;;;5035806;28;20664;-79
2022/11/23 03:38:56;;;;;;;7.57;1.83;;;6.20;99.90;;;;;;5036588;28;20566;-79
2022/11/23 03:41:22;;;;;;;3.90;1.40;;;6.20;99.90;;;;;;5036228;28;20177;-79
2022/11/23 03:43:47;;;;;;;5.10;1.80;;;6.20;99.90;;;;;;5037039;28;20187;-79
2022/11/23 03:46:13;;;;;;;4.33;1.70;;;6.20;99.90;;;;;;5036503;28;20176;-79
2022/11/23 03:48:38;;;;;;;4.87;1.60;;;6.20;99.90;;;;;;5035904;28;20595;-79
2022/11/23 03:51:04;;;;;;;4.00;1.47;;;6.20;99.90;;;;;;5036157;28;20182;-80
2022/11/23 03:53:30;;;;;;;3.80;1.63;;;6.20;99.90;;;;;;5037414;28;20172;-79
2022/11/23 03:55:57;;;;;;;5.77;1.40;;;6.20;99.90;;;;;;5035788;28;20188;-80
2022/11/23 03:58:22;;;;;;;5.60;1.77;;;6.20;99.90;;;;;;5035851;28;20190;-79
2022/11/23 04:00:48;;;;;;;4.83;1.50;;;6.20;99.90;;;;;;5037236;28;20190;-79
2022/11/23 04:03:14;;;;;;;3.33;1.70;;;6.20;99.90;;;;;;5035138;28;20266;-80
2022/11/23 04:05:39;;;;;;;6.47;1.60;;;6.20;99.90;;;;;;5035989;28;20177;-79
2022/11/23 04:08:05;;;;;;;5.10;1.90;;;6.20;99.90;;;;;;5035956;28;20298;-79
2022/11/23 04:10:30;;;;;;;4.90;1.60;;;6.20;99.90;;;;;;5037207;28;20202;-79
2022/11/23 04:12:56;;;;;;;2.90;1.67;;;6.20;99.90;;;;;;5035141;28;20182;-80
2022/11/23 04:15:22;;;;;;;5.00;1.80;;;6.30;99.90;;;;;;5035627;28;20232;-79
2022/11/23 04:17:47;;;;;;;9.20;1.70;;;6.20;99.90;;;;;;5036810;28;20196;-79
2022/11/23 04:20:13;;;;;;;4.77;1.77;;;6.30;99.90;;;;;;5036678;28;20714;-79
2022/11/23 04:22:39;;;;;;;3.57;1.60;;;6.20;99.90;;;;;;5051976;28;20271;-79
2022/11/23 04:25:05;;;;;;;4.60;1.60;;;6.30;99.90;;;;;;5036426;28;20210;-79
2022/11/23 04:27:31;;;;;;;5.00;1.70;;;6.30;99.90;;;;;;5035931;28;20219;-79
2022/11/23 04:29:59;;;;;;;4.60;1.73;;;6.30;99.90;;;;;;5036564;28;20176;-80
2022/11/23 04:32:24;;;;;;;3.63;1.60;;;6.30;99.90;;;;;;5035056;28;20187;-79
2022/11/23 04:34:50;;;;;;;8.20;1.70;;;6.30;99.90;;;;;;5035672;28;20171;-79
2022/11/23 04:37:16;;;;;;;4.07;1.80;;;6.30;99.90;;;;;;5035099;28;20257;-79
2022/11/23 04:39:41;;;;;;;4.77;1.90;;;6.30;99.90;;;;;;5035010;28;20649;-79
2022/11/23 04:42:10;;;;;;;6.83;1.90;;;6.30;99.90;;;;;;5035175;28;20195;-80
2022/11/23 04:44:35;;;;;;;3.57;2.00;;;6.20;99.90;;;;;;5035840;28;20182;-79
2022/11/23 04:47:01;;;;;;;4.77;1.77;;;6.30;99.90;;;;;;5035983;28;20203;-79
2022/11/23 04:49:27;;;;;;;6.17;2.10;;;6.30;99.90;;;;;;5036621;28;20195;-79
2022/11/23 04:51:52;;;;;;;3.53;1.70;;;6.30;99.90;;;;;;5034661;28;20179;-79
2022/11/23 04:54:18;;;;;;;4.63;2.20;;;6.30;99.90;;;;;;5035757;28;20176;-80
2022/11/23 04:56:43;;;;;;;6.83;2.20;;;6.30;99.90;;;;;;5036066;28;20167;-79
2022/11/23 04:59:09;;;;;;;2.13;1.73;;;6.30;99.90;;;;;;5035840;28;20174;-79
2022/11/23 05:01:34;;;;;;;6.43;2.07;;;6.30;99.90;;;;;;5035127;28;20181;-79
2022/11/23 05:04:00;;;;;;;7.20;1.93;;;6.20;99.90;;;;;;5051307;28;20177;-80
2022/11/23 05:06:26;;;;;;;4.03;1.80;;;6.20;99.90;;;;;;5034531;28;20181;-79
2022/11/23 05:08:51;;;;;;;4.43;2.00;;;6.20;99.90;;;;;;5034545;28;20225;-79
2022/11/23 05:11:18;;;;;;;7.23;1.87;;;6.20;99.90;;;;;;5034341;28;20200;-79
2022/11/23 05:13:44;;;;;;;4.27;1.93;;;6.10;99.90;;;;;;5034716;28;20187;-79
2022/11/23 05:16:09;;;;;;;4.10;1.80;;;6.10;99.90;;;;;;5035222;28;20183;-79
2022/11/23 05:18:35;;;;;;;5.60;1.87;;;6.10;99.90;;;;;;5033796;28;20191;-79
2022/11/23 05:21:00;;;;;;;5.97;2.03;;;6.20;99.90;;;;;;5035522;28;20193;-79
2022/11/23 05:23:26;;;;;;;6.97;2.30;;;6.10;99.90;;;;;;5035772;28;20193;-79
2022/11/23 05:25:52;;;;;;;5.43;2.20;;;6.10;99.90;;;;;;5035540;28;20181;-79
2022/11/23 05:28:19;;;;;;;6.27;2.27;;;6.10;99.90;;;;;;5035789;28;20719;-79
2022/11/23 05:30:45;;;;;;;5.47;2.63;;;6.20;99.90;;;;;;5033993;28;20179;-80
2022/11/23 05:33:11;;;;;;;3.60;1.93;;;6.10;99.90;;;;;;5035239;28;20171;-79
2022/11/23 05:35:37;;;;;;;5.07;2.17;;;6.10;99.90;;;;;;5033824;28;20182;-79
2022/11/23 05:38:03;;;;;;;5.30;2.10;;;6.10;99.90;;;;;;5035386;28;20199;-79
2022/11/23 05:40:29;;;;;;;4.17;2.10;;;6.20;99.90;;;;;;5033551;28;20179;-79
2022/11/23 05:42:58;;;;;;;4.23;1.93;;;6.10;99.90;;;;;;5033469;28;20278;-79
2022/11/23 05:45:25;;;;;;;5.60;2.00;;;6.10;99.90;;;;;;5033832;28;20209;-80
2022/11/23 05:47:51;;;;;;;4.63;2.23;;;6.10;99.90;;;;;;5034887;28;20202;-80
2022/11/23 05:50:18;;;;;;;7.03;2.37;;;6.00;99.90;;;;;;5034066;28;20663;-79
2022/11/23 05:52:43;;;;;;;7.43;2.20;;;6.00;99.90;;;;;;5034201;28;20178;-79
2022/11/23 05:55:09;;;;;;;3.50;2.00;;;6.00;99.90;;;;;;5033273;28;20600;-79
2022/11/23 05:57:34;;;;;;;5.17;1.90;;;6.00;99.90;;;;;;5033075;28;20293;-79
2022/11/23 06:00:01;;;;;;;5.40;2.40;;;6.00;99.90;;;;;;5033779;28;20187;-79
2022/11/23 06:02:26;;;;;;;4.23;2.07;;;6.00;99.90;;;;;;5034315;28;20174;-80
2022/11/23 06:04:52;;;;;;;6.47;2.40;;;6.00;99.90;;;;;;5034944;28;20178;-79
2022/11/23 06:07:17;;;;;;;5.73;2.23;;;6.00;99.90;;;;;;5034122;28;20208;-80
2022/11/23 06:09:43;;;;;;;4.73;1.93;;;6.00;99.90;;;;;;5034398;28;20181;-81
2022/11/23 06:12:08;;;;;;;6.23;2.60;;;6.00;99.90;;;;;;5033116;28;20585;-80
2022/11/23 06:14:34;;;;;;;4.60;2.27;;;6.00;99.90;;;;;;5032971;28;20182;-81
2022/11/23 06:17:00;;;;;;;4.97;2.50;;;6.00;99.90;;;;;;5034019;28;20317;-81
2022/11/23 06:19:25;;;;;;;4.97;2.50;;;5.90;99.90;;;;;;5034000;28;20182;-81
2022/11/23 06:21:51;;;;;;;4.17;2.20;;;5.80;99.90;;;;;;5034488;28;20182;-80
2022/11/23 06:24:16;;;;;;;9.43;2.60;;;5.80;99.90;;;;;;5034693;28;20174;-80
2022/11/23 06:26:42;;;;;;;6.60;2.40;;;5.70;99.90;;;;;;5032469;28;20236;-80
2022/11/23 06:29:07;;;;;;;5.73;2.77;;;5.70;99.90;;;;;;5056245;22;20237;-82
2022/11/23 06:31:33;;;;;;;4.67;2.40;;;5.70;99.90;;;;;;5036095;28;20694;-82
2022/11/23 06:33:58;;;;;;;4.37;2.20;;;5.70;99.90;;;;;;5034877;28;20589;-82
2022/11/23 06:36:24;;;;;;;3.50;2.23;;;5.70;99.90;;;;;;5036331;28;20644;-82
2022/11/23 06:38:50;;;;;;;7.60;3.17;;;5.70;99.90;;;;;;5035977;28;20210;-82
2022/11/23 06:41:16;;;;;;;6.07;2.33;;;5.60;99.90;;;;;;5035981;28;20202;-82
2022/11/23 06:43:42;;;;;;;6.03;2.20;;;5.70;99.90;;;;;;5034474;28;20663;-82
2022/11/23 06:46:09;;;;;;;6.53;2.20;;;5.70;99.90;;;;;;5034675;28;20179;-82
2022/11/23 06:48:34;;;;;;;7.20;2.73;;;5.70;99.90;;;;;;5035836;28;20217;-82
2022/11/23 06:51:00;;;;;;;3.30;2.27;;;5.70;99.90;;;;;;5035991;28;20166;-82
2022/11/23 06:53:27;;;;;;;6.10;2.30;;;5.70;99.90;;;;;;5034629;28;20644;-82
2022/11/23 06:55:58;;;;;;;4.70;2.27;;;5.80;99.90;;;;;;5035792;28;20258;-82
2022/11/23 06:58:24;;;;;;;6.47;2.70;;;5.80;99.90;;;;;;5034430;28;20201;-83
2022/11/23 07:00:50;;;;;;;6.03;2.60;;;5.80;99.90;;;;;;5034800;28;20178;-81
2022/11/23 07:03:23;;;;;;;4.37;2.23;;;5.80;99.90;;;;;;5035566;28;20201;-83
2022/11/23 07:05:49;;;;;;;4.57;2.30;;;5.80;99.90;;;;;;5035032;28;20170;-81
2022/11/23 07:08:15;;;;;;;6.77;2.40;;;5.90;99.90;;;;;;5034884;28;20293;-82
2022/11/23 07:10:41;;;;;;;4.07;2.20;;;5.90;99.90;;;;;;5034430;28;20258;-82
2022/11/23 07:13:08;;;;;;;4.47;2.17;;;5.80;99.90;;;;;;5034480;28;20178;-83
2022/11/23 07:15:34;;;;;;;5.83;2.30;;;5.90;99.90;;;;;;5035598;28;20166;-79
2022/11/23 07:18:00;;;;;;;7.73;2.40;;;5.90;99.90;;;;;;5034763;28;20206;-79
2022/11/23 07:20:25;;;;;;;5.00;2.50;;;5.90;99.90;;;;;;5050140;28;20175;-80
2022/11/23 07:23:06;;;;;;;5.83;2.30;;;6.00;99.90;;;;;;5028466;28;20683;-79
2022/11/23 07:25:33;;;;;;;5.50;2.30;;;6.00;99.90;;;;;;5050914;28;20692;-79
2022/11/23 07:28:00;;;;;;;3.73;2.00;;;5.90;99.90;;;;;;5034039;28;20267;-79
2022/11/23 07:30:27;;;;;;;5.67;2.33;;;6.00;99.90;;;;;;5025784;28;20171;-80
2022/11/23 07:32:53;;;;;;;4.97;2.23;;;5.90;99.90;;;;;;5024074;28;20180;-80
2022/11/23 07:35:19;;;;;;;5.20;2.10;;;5.90;99.90;;;;;;5022431;28;20173;-80
2022/11/23 07:37:45;;;;;;;7.53;2.63;;;5.90;99.90;;;;;;5023515;28;20760;-80
2022/11/23 07:40:11;;;;;;;7.60;2.57;;;5.90;99.90;;;;;;5014320;28;20263;-80
2022/11/23 07:42:37;;;;;;;3.67;2.00;;;5.90;99.90;;;;;;5014071;28;20205;-80
2022/11/23 07:45:04;;;;;;;5.13;2.40;;;5.90;99.90;;;;;;5017222;28;20190;-81
2022/11/23 07:47:29;;;;;;;8.37;2.20;;;5.90;99.90;;;;;;5028021;28;20205;-83
2022/11/23 07:49:55;;;;;;;7.50;1.97;;;5.90;99.90;;;;;;5025117;28;20176;-83
2022/11/23 07:52:21;;;;;;;6.90;2.80;;;5.90;99.90;;;;;;5013446;28;20313;-83
2022/11/23 07:54:46;;;;;;;8.37;2.40;;;5.90;99.90;;;;;;5013797;28;20194;-82
2022/11/23 07:57:12;;;;;;;5.27;1.87;;;5.90;99.90;;;;;;5014996;28;20186;-82
2022/11/23 07:59:38;;;;;;;6.47;2.37;;;5.90;99.90;;;;;;5013447;28;20176;-82
2022/11/23 08:02:04;;;;;;;7.10;2.90;;;5.90;99.90;;;;;;5014607;28;20198;-82
2022/11/23 08:04:29;;;;;;;3.93;2.07;;;6.00;99.90;;;;;;5014748;28;20543;-80
2022/11/23 08:06:55;;;;;;;6.33;2.60;;;6.00;99.90;;;;;;5022822;28;20180;-81
2022/11/23 08:09:21;;;;;;;4.83;2.10;;;6.00;99.90;;;;;;5013624;28;20275;-81
2022/11/23 08:11:46;;;;;;;5.77;2.17;;;6.00;99.90;;;;;;5013340;28;20181;-81
2022/11/23 08:14:12;;;;;;;6.03;2.40;;;6.00;99.90;;;;;;5013351;28;20227;-81
2022/11/23 08:16:38;;;;;;;6.53;2.40;;;6.10;99.90;;;;;;5014499;28;20175;-81
2022/11/23 08:19:03;;;;;;;6.83;1.97;;;6.10;99.90;;;;;;5013258;28;20191;-81
2022/11/23 08:21:29;;;;;;;4.33;2.10;;;6.10;99.90;;;;;;5014609;28;20646;-81
2022/11/23 08:23:54;;;;;;;7.17;2.10;;;6.20;99.90;;;;;;5024948;28;20203;-81
2022/11/23 08:26:20;;;;;;;4.27;2.10;;;6.20;99.90;;;;;;5032996;28;20172;-81
2022/11/23 08:28:46;;;;;;;4.93;2.43;;;6.30;99.90;;;;;;5034093;28;20266;-81
2022/11/23 08:31:13;;;;;;;3.77;2.03;;;6.30;99.90;;;;;;5034057;28;20211;-81
2022/11/23 08:33:39;;;;;;;4.00;2.17;;;6.30;99.90;;;;;;5032685;28;20202;-81
2022/11/23 08:36:06;;;;;;;4.40;2.07;;;6.40;99.90;;;;;;5034069;28;20194;-80
2022/11/23 08:38:32;;;;;;;5.93;2.00;;;6.60;99.90;;;;;;5032617;28;20573;-81
2022/11/23 08:40:59;;;;;;;3.27;1.70;;;6.70;99.90;;;;;;5032770;28;20179;-81
2022/11/23 08:43:26;;;;;;;5.00;2.07;;;6.70;99.90;;;;;;5032464;28;20648;-81
2022/11/23 08:45:56;;;;;;;6.03;1.83;;;6.60;99.90;;;;;;5032673;28;20179;-81
2022/11/23 08:48:21;;;;;;;7.40;2.03;;;6.60;99.90;;;;;;5032630;28;20211;-81
2022/11/23 08:50:47;;;;;;;6.33;2.23;;;6.60;99.90;;;;;;5032569;28;20227;-81
2022/11/23 08:53:12;;;;;;;5.07;1.80;;;6.60;99.90;;;;;;5032984;28;20181;-81
2022/11/23 08:55:38;;;;;;;5.00;2.00;;;6.60;99.90;;;;;;5033822;28;20246;-82
2022/11/23 08:58:03;;;;;;;4.97;1.93;;;6.70;99.90;;;;;;5032165;28;20211;-81
2022/11/23 09:00:29;;;;;;;7.33;2.00;;;6.70;99.90;;;;;;5021179;28;20193;-81
2022/11/23 09:02:58;;;;;;;5.53;2.30;;;6.70;99.90;;;;;;5012447;28;20175;-81
2022/11/23 09:05:25;;;;;;;3.60;1.77;;;6.80;99.90;;;;;;5013849;28;20235;-81
2022/11/23 09:07:50;;;;;;;4.50;2.00;;;6.70;99.90;;;;;;5013609;28;20303;-81
2022/11/23 09:10:16;;;;;;;6.97;2.47;;;6.70;99.90;;;;;;5013536;28;20272;-81
2022/11/23 09:12:42;;;;;;;3.97;2.07;;;6.70;99.90;;;;;;5012078;28;20228;-81
2022/11/23 09:15:08;;;;;;;5.00;1.70;;;6.70;99.90;;;;;;5012307;28;20202;-81
2022/11/23 09:17:34;;;;;;;6.47;2.00;;;6.70;99.90;;;;;;5013603;28;20233;-81
2022/11/23 09:20:00;;;;;;;2.87;1.80;;;6.70;99.90;;;;;;5014826;28;20187;-81
2022/11/23 09:22:26;;;;;;;6.13;2.03;;;6.70;99.90;;;;;;5020224;28;20269;-81
2022/11/23 09:24:52;;;;;;;5.20;2.20;;;6.80;99.90;;;;;;5024459;28;20218;-81
2022/11/23 09:27:18;;;;;;;5.00;1.80;;;6.80;99.90;;;;;;5026791;28;20208;-81
2022/11/23 09:29:44;;;;;;;4.23;1.90;;;6.80;99.90;;;;;;5027865;28;20185;-81
2022/11/23 09:32:09;;;;;;;4.87;2.00;;;6.80;99.90;;;;;;5032951;28;20184;-81
2022/11/23 09:34:35;;;;;;;3.83;1.80;;;6.80;99.90;;;;;;5013244;28;20183;-81
2022/11/23 09:37:00;;;;;;;6.13;1.93;;;6.90;99.90;;;;;;5012133;28;20546;-82
2022/11/23 09:39:26;;;;;;;4.57;1.80;;;6.90;99.90;;;;;;5011831;28;20244;-82
2022/11/23 09:42:03;;;;;;;5.67;1.60;;;7.00;99.90;;;;;;5011591;28;20245;-82
2022/11/23 09:45:07;;;;;;;7.03;1.90;;;7.10;99.90;;;;;;5011313;28;20168;-82
2022/11/23 09:47:54;;;;;;;4.50;2.10;;;7.10;99.90;;;;;;5012862;28;20223;-81
2022/11/23 09:50:38;;;;;;;6.17;2.30;;;7.10;99.90;;;;;;5011483;28;20655;-82
2022/11/23 09:53:12;;;;;;;6.77;2.47;;;7.10;99.90;;;;;;5011286;28;20232;-80
2022/11/23 09:55:45;;;;;;;10.80;2.50;;;7.10;99.90;;;;;;5013428;28;20177;-82
2022/11/23 09:58:16;;;;;;;6.47;2.43;;;7.20;99.90;;;;;;5011776;28;20699;-82
2022/11/23 10:01:04;;;;;;;7.53;2.60;;;7.20;99.90;;;;;;5013706;28;20204;-83
2022/11/23 10:03:37;;;;;;;8.43;2.40;;;7.20;99.90;;;;;;5013317;28;20177;-81
2022/11/23 10:06:12;;;;;;;5.73;1.93;;;7.20;99.90;;;;;;5013451;28;20201;-82
2022/11/23 10:08:52;;;;;;;4.77;2.00;;;7.20;99.90;;;;;;5013601;28;20221;-81
2022/11/23 10:11:42;;;;;;;6.33;2.47;;;7.20;99.90;;;;;;5012389;28;20269;-82
2022/11/23 10:14:26;;;;;;;4.90;2.40;;;7.20;99.90;;;;;;5012287;28;20178;-81
2022/11/23 10:17:24;;;;;;;4.60;2.10;;;7.20;99.90;;;;;;5012738;28;20182;-81
2022/11/23 10:20:39;;;;;;;5.33;1.83;;;7.30;99.90;;;;;;4991892;28;20643;-80
2022/11/23 10:23:39;;;;;;;4.63;1.50;;;7.30;99.90;;;;;;4999063;28;20200;-81
2022/11/23 10:26:11;;;;;;;4.70;1.63;;;7.30;99.90;;;;;;5012025;28;20191;-81
2022/11/23 10:28:37;;;;;;;6.47;2.20;;;7.30;99.90;;;;;;5011673;28;20225;-86
2022/11/23 10:31:19;;;;;;;5.97;1.63;;;7.30;99.90;;;;;;5013446;28;20188;-81
2022/11/23 10:34:10;;;;;;;5.33;1.90;;;7.40;99.90;;;;;;5012013;28;20263;-80
2022/11/23 10:36:37;;;;;;;4.53;1.90;;;7.40;99.90;;;;;;4984146;28;20197;-80
2022/11/23 10:39:24;;;;;;;4.77;1.73;;;7.50;99.90;;;;;;5011947;28;20300;-80
2022/11/23 10:41:51;;;;;;;6.33;1.70;;;7.60;99.90;;;;;;5013116;28;20224;-80
2022/11/23 10:44:17;;;;;;;3.43;1.47;;;7.70;99.90;;;;;;5011673;28;20272;-80
2022/11/23 10:46:43;;;;;;;7.47;1.90;;;7.70;99.90;;;;;;5012976;28;20210;-80
2022/11/23 10:49:31;;;;;;;5.23;1.80;;;7.80;99.90;;;;;;5012999;28;20221;-80
2022/11/23 10:52:23;;;;;;;5.90;1.70;;;8.10;99.90;;;;;;5011867;28;20190;-81
2022/11/23 10:54:54;;;;;;;3.60;1.80;;;8.50;99.90;;;;;;5010990;28;20175;-80
2022/11/23 10:57:26;;;;;;;6.67;1.93;;;8.70;99.90;;;;;;5011812;28;20187;-81
2022/11/23 11:00:13;;;;;;;6.50;2.10;;;8.70;99.90;;;;;;5028658;28;20646;-80
2022/11/23 11:02:39;;;;;;;5.03;2.27;;;8.70;99.90;;;;;;5031173;28;20183;-81
2022/11/23 11:05:34;;;;;;;4.47;1.97;;;8.90;99.90;;;;;;5031410;28;20189;-80
2022/11/23 11:08:10;;;;;;;5.13;1.60;;;9.00;99.90;;;;;;5032686;28;20206;-81
2022/11/23 11:11:16;;;;;;;5.53;1.93;;;9.20;99.90;;;;;;5029978;28;20175;-80
2022/11/23 11:13:43;;;;;;;6.77;1.90;;;9.20;99.90;;;;;;5017611;28;20183;-81
2022/11/23 11:16:23;;;;;;;5.57;1.93;;;9.30;99.90;;;;;;5033955;28;20176;-81
2022/11/23 11:18:49;;;;;;;5.47;1.60;;;9.50;99.90;;;;;;5034450;28;20570;-81
2022/11/23 11:21:29;;;;;;;6.83;1.73;;;9.80;99.90;;;;;;5036067;28;20655;-81
2022/11/23 11:24:03;;;;;;;3.30;1.40;;;9.90;99.90;;;;;;5034434;28;20204;-81
2022/11/23 11:26:32;;;;;;;4.93;1.70;;;10.10;99.90;;;;;;5036011;28;20264;-81
2022/11/23 11:29:03;;;;;;;3.53;1.27;;;10.10;99.90;;;;;;5034225;28;20228;-80
2022/11/23 11:31:52;;;;;;;2.10;1.10;;;10.00;99.90;;;;;;5034527;28;20276;-80
2022/11/23 11:34:45;;;;;;;2.77;1.30;;;9.90;99.90;;;;;;5034669;28;20197;-81
2022/11/23 11:37:30;;;;;;;3.70;1.50;;;10.00;99.90;;;;;;5034469;28;20642;-81
2022/11/23 11:40:20;;;;;;;3.90;1.40;;;10.20;99.90;;;;;;5035895;28;20178;-81
2022/11/23 11:42:45;;;;;;;2.73;1.40;;;10.30;99.90;;;;;;5033642;28;20566;-81
2022/11/23 11:45:25;;;;;;;3.87;1.60;;;10.40;99.90;;;;;;5034296;28;20179;-81
2022/11/23 11:48:00;;;;;;;3.00;1.23;;;10.40;99.90;;;;;;5034488;28;20244;-81
2022/11/23 11:50:30;;;;;;;3.63;1.30;;;10.80;99.90;;;;;;5034604;28;20185;-81
2022/11/23 11:53:16;;;;;;;3.47;1.30;;;11.10;99.90;;;;;;5034529;28;20178;-81
2022/11/23 11:55:49;;;;;;;4.87;1.50;;;11.10;99.90;;;;;;5036063;28;20166;-81
2022/11/23 11:58:16;;;;;;;4.40;1.53;;;11.20;99.90;;;;;;5035826;28;20309;-80
2022/11/23 12:00:44;;;;;;;3.07;1.40;;;10.80;99.90;;;;;;5036030;28;20182;-80
2022/11/23 12:03:19;;;;;;;3.43;1.20;;;10.60;99.90;;;;;;5033954;28;20182;-80
2022/11/23 12:05:51;;;;;;;2.60;1.20;;;10.50;99.90;;;;;;5034483;28;20174;-80
2022/11/23 12:08:36;;;;;;;4.43;1.57;;;10.50;99.90;;;;;;5035883;28;20212;-80
2022/11/23 12:11:04;;;;;;;4.50;1.63;;;10.60;99.90;;;;;;5034407;28;20170;-79
2022/11/23 12:13:40;;;;;;;3.97;1.20;;;10.60;99.90;;;;;;5034258;28;20538;-80
2022/11/23 12:16:39;;;;;;;4.53;1.30;;;11.00;99.90;;;;;;5033723;28;20276;-80
2022/11/23 12:19:40;;;;;;;2.80;1.10;;;10.90;99.90;;;;;;5035498;28;20303;-80
2022/11/23 12:22:37;;;;;;;3.00;1.30;;;10.90;99.90;;;;;;4993908;28;20322;-80
2022/11/23 12:25:10;;;;;;;2.80;1.20;;;10.80;99.90;;;;;;5034408;28;20170;-80
2022/11/23 12:30:38;;;;;;;3.23;1.30;;;10.60;99.90;;;;;;4973971;28;20208;-82
2022/11/23 12:33:41;;;;;;;3.63;1.50;;;10.60;99.90;;;;;;4974233;28;20259;-82
2022/11/23 12:36:22;;;;;;;2.43;1.30;;;10.60;99.90;;;;;;4975071;28;20545;-83
2022/11/23 12:38:55;;;;;;;3.33;1.43;;;10.60;99.90;;;;;;4980922;28;20573;-82
2022/11/23 12:41:35;;;;;;;3.10;1.40;;;10.80;99.90;;;;;;4974453;28;20172;-82
2022/11/23 12:44:06;;;;;;;4.80;1.40;;;10.90;99.90;;;;;;4975504;28;20212;-81
2022/11/23 12:47:14;;;;;;;3.77;1.20;;;10.80;99.90;;;;;;4990197;28;20180;-84
2022/11/23 12:49:43;;;;;;;4.33;1.50;;;11.40;99.90;;;;;;4973809;28;20227;-82
2022/11/23 12:52:36;;;;;;;3.30;1.40;;;11.40;99.90;;;;;;4990129;28;20174;-82
2022/11/23 12:55:24;;;;;;;4.20;1.70;;;11.40;99.90;;;;;;4974245;28;20528;-82
2022/11/23 12:58:23;;;;;;;2.20;1.30;;;11.70;99.90;;;;;;4975148;28;20173;-82
2022/11/23 13:00:55;;;;;;;4.13;1.50;;;11.90;99.90;;;;;;4973919;28;20231;-82
2022/11/23 13:03:44;;;;;;;3.30;1.50;;;11.50;99.90;;;;;;4973270;28;20202;-82
2022/11/23 13:06:22;;;;;;;3.93;1.37;;;11.50;99.90;;;;;;4974213;28;20172;-82
2022/11/23 13:09:24;;;;;;;3.93;1.50;;;11.70;99.90;;;;;;4974712;28;20231;-82
2022/11/23 13:11:53;;;;;;;6.43;1.50;;;11.10;99.90;;;;;;4973694;28;20164;-82